Anqing, China
Current Conditions -  °F | °C
As of 12:00 AM on Saturday 25 Oct 2014 (Local Time) from ZSOF Reporting Station
Haze Haze  
Wind Chill: 61°   Ceiling: Unl
Heat Index: 61°   Visibility: 3mi
Dew Point: 54°   Wind: 7mph
Humidity: 77%   Direction: 160°SSE
Pressure: 30.03"   Gusts: NA
Location:  30.5°N, 117.05°E
Report Text: ZSOF 241600Z 16003MPS 5000 BR NSC 16/12 Q1017 NOSIG
Loading
Personal Weather Stations






























Interactive Weather Map
Tropical Storm Tracking
New forecast layout! Learn more

10-Day Weather Forecast

Advertisements
Track Severe Weather on mobile